createdAt,value
2019-03-19T00:00:18.748Z,9.30
2019-03-19T00:02:47.466Z,9.30
2019-03-19T00:05:16.356Z,9.30
2019-03-19T00:07:45.023Z,9.20
2019-03-19T00:10:13.827Z,9.20
2019-03-19T00:12:42.431Z,9.20
2019-03-19T00:15:11.689Z,9.10
2019-03-19T00:17:40.260Z,9.10
2019-03-19T00:20:11.627Z,9.10
2019-03-19T00:22:40.225Z,9.10
2019-03-19T00:25:08.928Z,9.10
2019-03-19T00:27:37.712Z,9.00
2019-03-19T00:30:09.354Z,9.00
2019-03-19T00:32:37.803Z,9.00
2019-03-19T00:35:07.652Z,9.00
2019-03-19T00:37:36.321Z,9.00
2019-03-19T00:40:07.586Z,9.00
2019-03-19T00:42:36.197Z,9.00
2019-03-19T00:45:07.919Z,9.00
2019-03-19T00:47:36.473Z,9.00
2019-03-19T00:50:08.029Z,9.00
2019-03-19T00:52:36.966Z,9.10
2019-03-19T00:55:06.783Z,9.10
2019-03-19T00:57:35.445Z,9.10
2019-03-19T01:00:07.830Z,9.10
2019-03-19T01:02:36.385Z,9.10
2019-03-19T01:05:06.735Z,9.10
2019-03-19T01:07:35.232Z,9.10
2019-03-19T01:10:05.625Z,9.10
2019-03-19T01:12:34.131Z,9.10
2019-03-19T01:15:02.907Z,9.10
2019-03-19T01:17:31.491Z,9.10
2019-03-19T01:20:00.378Z,9.10
2019-03-19T01:22:29.202Z,9.10
2019-03-19T01:24:57.742Z,9.00
2019-03-19T01:27:26.396Z,9.00
2019-03-19T01:29:55.041Z,9.00
2019-03-19T01:32:23.645Z,8.90
2019-03-19T01:34:52.676Z,8.90
2019-03-19T01:37:21.182Z,8.90
2019-03-19T01:39:49.908Z,8.90
2019-03-19T01:42:18.562Z,8.90
2019-03-19T01:44:47.335Z,8.90
2019-03-19T01:47:16.065Z,8.90
2019-03-19T01:49:44.595Z,8.90
2019-03-19T01:52:13.577Z,8.90
2019-03-19T01:54:42.354Z,8.80
2019-03-19T01:57:10.865Z,8.80
2019-03-19T01:59:39.531Z,8.80
2019-03-19T02:02:08.087Z,8.80
2019-03-19T02:04:36.547Z,8.80
2019-03-19T02:07:05.212Z,8.80
2019-03-19T02:09:33.746Z,8.80
2019-03-19T02:12:02.836Z,8.80
2019-03-19T02:14:31.355Z,8.80
2019-03-19T02:17:00.293Z,8.80
2019-03-19T02:19:29.167Z,8.80
2019-03-19T02:21:57.691Z,8.80
2019-03-19T02:24:26.262Z,8.80
2019-03-19T02:26:54.919Z,8.80
2019-03-19T02:29:23.586Z,8.80
2019-03-19T02:31:52.194Z,8.80
2019-03-19T02:34:20.831Z,8.80
2019-03-19T02:36:49.525Z,8.90
2019-03-19T02:39:18.350Z,8.90
2019-03-19T02:41:46.965Z,8.90
2019-03-19T02:44:15.485Z,8.90
2019-03-19T02:46:44.079Z,8.90
2019-03-19T02:49:12.677Z,8.90
2019-03-19T02:51:41.200Z,8.90
2019-03-19T02:54:09.915Z,8.90
2019-03-19T02:56:38.554Z,8.90
2019-03-19T02:59:07.281Z,8.90
2019-03-19T03:01:35.881Z,8.90
2019-03-19T03:04:04.996Z,8.90
2019-03-19T03:06:33.584Z,8.90
2019-03-19T03:09:02.174Z,8.90
2019-03-19T03:11:30.746Z,8.90
2019-03-19T03:13:59.346Z,8.90
2019-03-19T03:16:27.918Z,8.90
2019-03-19T03:18:56.513Z,8.90
2019-03-19T03:21:25.177Z,8.90
2019-03-19T03:23:55.587Z,8.90
2019-03-19T03:26:24.577Z,8.90
2019-03-19T03:28:53.278Z,8.90
2019-03-19T03:31:21.813Z,8.90
2019-03-19T03:33:50.348Z,8.90
2019-03-19T03:36:18.951Z,8.90
2019-03-19T03:38:47.621Z,8.90
2019-03-19T03:41:16.221Z,8.80
2019-03-19T03:43:44.952Z,8.90
2019-03-19T03:46:13.804Z,8.80
2019-03-19T03:48:42.346Z,8.80
2019-03-19T03:51:11.045Z,8.80
2019-03-19T03:53:39.696Z,8.80
2019-03-19T03:56:08.516Z,8.80
2019-03-19T03:58:37.047Z,8.80
2019-03-19T04:01:05.733Z,8.80
2019-03-19T04:03:34.406Z,8.80
2019-03-19T04:06:02.977Z,8.70
2019-03-19T04:08:31.536Z,8.70
2019-03-19T04:11:00.282Z,8.70
2019-03-19T04:13:28.831Z,8.70
2019-03-19T04:15:57.573Z,8.60
2019-03-19T04:18:26.260Z,8.60
2019-03-19T04:20:54.915Z,8.60
2019-03-19T04:23:23.692Z,8.60
2019-03-19T04:25:52.815Z,8.60
2019-03-19T04:28:21.552Z,8.60
2019-03-19T04:30:50.611Z,8.60
2019-03-19T04:33:19.234Z,8.60
2019-03-19T04:35:47.703Z,8.60
2019-03-19T04:38:16.222Z,8.60
2019-03-19T04:40:44.880Z,8.60
2019-03-19T04:43:13.372Z,8.60
2019-03-19T04:45:41.863Z,8.60
2019-03-19T04:48:10.496Z,8.60
2019-03-19T04:50:39.315Z,8.60
2019-03-19T04:53:07.961Z,8.70
2019-03-19T04:55:36.841Z,8.60
2019-03-19T04:58:05.278Z,8.60
2019-03-19T05:00:33.913Z,8.60
2019-03-19T05:03:02.436Z,8.60
2019-03-19T05:05:31.063Z,8.60
2019-03-19T05:07:59.705Z,8.60
2019-03-19T05:10:28.413Z,8.50
2019-03-19T05:12:57.051Z,8.50
2019-03-19T05:15:26.032Z,8.50
2019-03-19T05:17:54.877Z,8.50
2019-03-19T05:20:23.635Z,8.50
2019-03-19T05:22:52.222Z,8.50
2019-03-19T05:25:20.870Z,8.50
2019-03-19T05:27:49.519Z,8.40
2019-03-19T05:30:21.521Z,8.40
2019-03-19T05:32:50.255Z,8.40
2019-03-19T05:35:18.775Z,8.40
2019-03-19T05:37:47.674Z,8.40
2019-03-19T05:40:17.084Z,8.40
2019-03-19T05:42:46.447Z,8.40
2019-03-19T05:45:15.633Z,8.40
2019-03-19T05:47:44.563Z,8.40
2019-03-19T05:50:15.408Z,8.40
2019-03-19T05:52:44.343Z,8.40
2019-03-19T05:55:13.315Z,8.50
2019-03-19T05:57:49.587Z,8.50
2019-03-19T06:00:23.808Z,8.50
2019-03-19T06:02:52.319Z,8.50
2019-03-19T06:05:21.617Z,8.50
2019-03-19T06:07:50.398Z,8.50
2019-03-19T06:10:19.067Z,8.50
2019-03-19T06:12:47.700Z,8.60
2019-03-19T06:15:16.949Z,8.60
2019-03-19T06:17:45.812Z,8.70
2019-03-19T06:20:17.742Z,8.70
2019-03-19T06:22:46.487Z,8.70
2019-03-19T06:25:15.304Z,8.70
2019-03-19T06:27:44.034Z,8.70
2019-03-19T06:30:18.533Z,8.70
2019-03-19T06:32:47.499Z,8.70
2019-03-19T06:35:16.778Z,8.70
2019-03-19T06:37:45.576Z,8.80
2019-03-19T06:40:24.219Z,8.80
2019-03-19T06:42:53.092Z,8.80
2019-03-19T06:45:23.218Z,8.90
2019-03-19T06:47:52.264Z,8.90
2019-03-19T06:50:21.423Z,8.90
2019-03-19T06:52:50.228Z,8.90
2019-03-19T06:55:19.917Z,9.00
2019-03-19T06:57:48.726Z,9.00
2019-03-19T07:00:24.196Z,9.00
2019-03-19T07:02:53.379Z,9.10
2019-03-19T07:05:22.650Z,9.10
2019-03-19T07:07:51.317Z,9.20
2019-03-19T07:10:21.317Z,9.30
2019-03-19T07:12:50.330Z,9.30
2019-03-19T07:15:23.585Z,9.30
2019-03-19T07:17:52.487Z,9.40
2019-03-19T07:20:23.549Z,9.50
2019-03-19T07:22:52.162Z,9.50
2019-03-19T07:25:20.943Z,9.50
2019-03-19T07:27:50.109Z,9.60
2019-03-19T07:30:22.517Z,9.60
2019-03-19T07:32:51.442Z,9.70
2019-03-19T07:35:20.326Z,9.70
2019-03-19T07:37:49.173Z,9.70
2019-03-19T07:40:19.042Z,9.80
2019-03-19T07:42:47.963Z,9.80
2019-03-19T07:45:21.310Z,9.80
2019-03-19T07:47:50.061Z,9.90
2019-03-19T07:50:25.270Z,9.90
2019-03-19T07:52:53.988Z,9.90
2019-03-19T07:55:22.718Z,9.90
2019-03-19T07:57:51.480Z,10.00
2019-03-19T08:00:21.360Z,10.00
2019-03-19T08:02:50.209Z,10.00
2019-03-19T08:05:19.086Z,10.00
2019-03-19T08:07:47.965Z,10.10
2019-03-19T08:10:17.699Z,10.10
2019-03-19T08:12:46.644Z,10.10
2019-03-19T08:15:21.900Z,10.10
2019-03-19T08:17:50.736Z,10.10
2019-03-19T08:20:19.949Z,10.10
2019-03-19T08:22:48.718Z,10.10
2019-03-19T08:25:17.430Z,10.10
2019-03-19T08:27:46.316Z,10.10
2019-03-19T08:30:18.417Z,10.10
2019-03-19T08:32:48.016Z,10.10
2019-03-19T08:35:16.979Z,10.20
2019-03-19T08:37:45.693Z,10.20
2019-03-19T08:40:15.514Z,10.20
2019-03-19T08:42:44.639Z,10.30
2019-03-19T08:45:18.274Z,10.30
2019-03-19T08:47:46.828Z,10.40
2019-03-19T08:50:24.749Z,10.30
2019-03-19T08:52:55.421Z,10.30
2019-03-19T08:55:24.072Z,10.30
2019-03-19T08:57:52.893Z,10.30
2019-03-19T09:00:23.894Z,10.40
2019-03-19T09:02:52.455Z,10.40
2019-03-19T09:05:22.691Z,10.50
2019-03-19T09:07:51.690Z,10.60
2019-03-19T09:10:21.486Z,10.70
2019-03-19T09:12:50.593Z,10.70
2019-03-19T09:15:24.180Z,10.80
2019-03-19T09:17:52.743Z,10.80
2019-03-19T09:20:21.814Z,10.80
2019-03-19T09:22:53.901Z,10.80
2019-03-19T09:25:23.766Z,10.80
2019-03-19T09:27:52.520Z,10.80
2019-03-19T09:30:22.550Z,10.90
2019-03-19T09:32:51.170Z,11.00
2019-03-19T09:35:20.142Z,11.10
2019-03-19T09:37:57.746Z,11.10
2019-03-19T09:40:22.876Z,11.20
2019-03-19T09:42:51.384Z,11.30
2019-03-19T09:45:20.039Z,11.40
2019-03-19T09:47:48.638Z,11.40
2019-03-19T09:50:25.681Z,11.50
2019-03-19T09:52:54.553Z,11.50
2019-03-19T09:55:23.135Z,11.70
2019-03-19T09:57:51.929Z,11.70
2019-03-19T10:00:22.028Z,11.70
2019-03-19T10:02:50.897Z,11.70
2019-03-19T10:05:19.726Z,11.80
2019-03-19T10:07:48.641Z,11.80
2019-03-19T10:10:19.337Z,11.70
2019-03-19T10:12:48.158Z,11.70
2019-03-19T10:15:17.299Z,11.70
2019-03-19T10:17:46.059Z,11.70
2019-03-19T10:20:24.603Z,11.70
2019-03-19T10:22:53.689Z,11.60
2019-03-19T10:25:22.155Z,11.60
2019-03-19T10:27:50.680Z,11.60
2019-03-19T10:30:23.074Z,11.60
2019-03-19T10:32:52.028Z,11.50
2019-03-19T10:35:24.291Z,11.60
2019-03-19T10:37:53.377Z,11.60
2019-03-19T10:40:22.507Z,11.60
2019-03-19T10:42:51.139Z,11.70
2019-03-19T10:45:22.314Z,11.70
2019-03-19T10:47:50.894Z,11.80
2019-03-19T10:50:20.911Z,11.80
2019-03-19T10:52:49.582Z,11.70
2019-03-19T10:55:18.479Z,11.80
2019-03-19T10:57:47.341Z,11.80
2019-03-19T11:00:20.787Z,11.90
2019-03-19T11:02:49.623Z,11.90
2019-03-19T11:05:19.179Z,11.90
2019-03-19T11:07:48.166Z,12.00
2019-03-19T11:10:17.534Z,12.10
2019-03-19T11:12:46.103Z,12.10
2019-03-19T11:15:20.439Z,12.20
2019-03-19T11:17:49.489Z,12.20
2019-03-19T11:20:19.475Z,12.20
2019-03-19T11:22:48.990Z,12.30
2019-03-19T11:25:28.432Z,12.30
2019-03-19T11:27:57.151Z,12.30
2019-03-19T11:30:26.666Z,12.30
2019-03-19T11:32:55.464Z,12.30
2019-03-19T11:35:24.271Z,12.40
2019-03-19T11:37:53.029Z,12.50
2019-03-19T11:40:25.317Z,12.60
2019-03-19T11:42:53.009Z,12.60
2019-03-19T11:45:25.587Z,12.70
2019-03-19T11:47:54.403Z,12.70
2019-03-19T11:50:26.688Z,12.80
2019-03-19T11:52:55.973Z,12.90
2019-03-19T11:55:25.196Z,12.90
2019-03-19T11:57:53.931Z,13.00
2019-03-19T12:00:42.930Z,13.00
2019-03-19T12:03:16.189Z,13.10
2019-03-19T12:05:42.601Z,13.20
2019-03-19T12:08:11.236Z,13.30
2019-03-19T12:10:39.945Z,13.30
2019-03-19T12:13:09.638Z,13.30
2019-03-19T12:15:39.040Z,13.20
2019-03-19T12:18:07.560Z,13.10
2019-03-19T12:20:36.346Z,13.10
2019-03-19T12:23:05.446Z,13.10
2019-03-19T12:25:34.347Z,13.10
2019-03-19T12:28:03.459Z,13.10
2019-03-19T12:30:32.380Z,13.20
2019-03-19T12:33:01.279Z,13.30
2019-03-19T12:35:30.947Z,13.40
2019-03-19T12:38:00.182Z,13.40
2019-03-19T12:40:36.954Z,13.50
2019-03-19T12:42:59.476Z,13.60
2019-03-19T12:45:28.428Z,13.60
2019-03-19T12:47:57.036Z,13.70
2019-03-19T12:50:27.401Z,13.70
2019-03-19T12:52:56.263Z,13.70
2019-03-19T12:55:24.969Z,13.70
2019-03-19T12:57:53.521Z,13.70
2019-03-19T13:00:34.729Z,13.70
2019-03-19T13:02:59.796Z,13.70
2019-03-19T13:05:28.511Z,13.60
2019-03-19T13:07:57.338Z,13.70
2019-03-19T13:10:26.245Z,13.70
2019-03-19T13:12:55.179Z,13.70
2019-03-19T13:15:24.087Z,13.70
2019-03-19T13:17:54.516Z,13.70
2019-03-19T13:20:23.900Z,13.70
2019-03-19T13:22:54.606Z,13.70
2019-03-19T13:25:24.241Z,13.80
2019-03-19T13:27:53.172Z,13.90
2019-03-19T13:30:23.442Z,13.90
2019-03-19T13:32:52.275Z,13.90
2019-03-19T13:35:21.212Z,13.90
2019-03-19T13:37:49.854Z,13.90
2019-03-19T13:40:19.507Z,13.90
2019-03-19T13:42:48.500Z,13.90
2019-03-19T13:45:20.117Z,13.90
2019-03-19T13:47:49.489Z,14.00
2019-03-19T13:50:19.010Z,13.90
2019-03-19T13:52:47.566Z,13.90
2019-03-19T13:55:24.508Z,13.90
2019-03-19T13:57:53.174Z,13.90
2019-03-19T14:00:21.949Z,13.90
2019-03-19T14:02:51.280Z,13.80
2019-03-19T14:05:19.889Z,13.90
2019-03-19T14:07:48.926Z,13.80
2019-03-19T14:10:20.993Z,13.80
2019-03-19T14:12:50.270Z,13.70
2019-03-19T14:15:26.066Z,13.60
2019-03-19T14:17:54.654Z,13.50
2019-03-19T14:20:23.291Z,13.50
2019-03-19T14:22:52.301Z,13.40
2019-03-19T14:25:20.899Z,13.40
2019-03-19T14:27:50.005Z,13.40
2019-03-19T14:30:20.945Z,13.40
2019-03-19T14:32:49.817Z,13.40
2019-03-19T14:35:18.563Z,13.40
2019-03-19T14:37:47.185Z,13.40
2019-03-19T14:40:22.956Z,13.50
2019-03-19T14:42:51.682Z,13.50
2019-03-19T14:45:20.603Z,13.70
2019-03-19T14:47:49.872Z,13.80
2019-03-19T14:50:23.489Z,13.90
2019-03-19T14:52:52.649Z,14.00
2019-03-19T14:55:21.394Z,14.10
2019-03-19T14:57:51.015Z,14.10
2019-03-19T15:00:23.287Z,14.10
2019-03-19T15:02:51.860Z,14.20
2019-03-19T15:05:21.363Z,14.10
2019-03-19T15:07:49.911Z,14.10
2019-03-19T15:10:19.860Z,14.20
2019-03-19T15:12:49.081Z,14.10
2019-03-19T15:15:21.263Z,14.10
2019-03-19T15:17:50.143Z,14.10
2019-03-19T15:20:24.026Z,14.10
2019-03-19T15:22:52.739Z,14.10
2019-03-19T15:25:21.355Z,14.20
2019-03-19T15:27:50.372Z,14.50
2019-03-19T15:30:19.999Z,15.00
2019-03-19T15:32:48.961Z,15.60
2019-03-19T15:35:38.348Z,16.00
2019-03-19T15:38:06.932Z,16.30
2019-03-19T15:40:35.612Z,16.60
2019-03-19T15:43:04.549Z,16.60
2019-03-19T15:45:33.459Z,16.50
2019-03-19T15:48:02.281Z,16.40
2019-03-19T15:50:31.047Z,16.50
2019-03-19T15:52:59.670Z,16.80
2019-03-19T15:55:28.361Z,17.00
2019-03-19T15:57:57.076Z,17.20
2019-03-19T16:00:26.032Z,17.30
2019-03-19T16:02:54.716Z,17.30
2019-03-19T16:05:23.441Z,17.30
2019-03-19T16:07:52.191Z,17.30
2019-03-19T16:10:20.939Z,17.20
2019-03-19T16:12:49.677Z,17.10
2019-03-19T16:15:20.639Z,16.90
2019-03-19T16:17:49.387Z,16.60
2019-03-19T16:20:21.999Z,16.30
2019-03-19T16:22:50.892Z,16.10
2019-03-19T16:25:22.141Z,15.80
2019-03-19T16:27:51.315Z,15.60
2019-03-19T16:30:20.841Z,15.40
2019-03-19T16:32:49.773Z,15.30
2019-03-19T16:35:18.513Z,15.10
2019-03-19T16:37:47.406Z,15.00
2019-03-19T16:40:17.906Z,15.00
2019-03-19T16:42:50.793Z,14.90
2019-03-19T16:45:23.397Z,14.90
2019-03-19T16:47:52.858Z,14.90
2019-03-19T16:50:24.442Z,14.80
2019-03-19T16:52:53.539Z,14.70
2019-03-19T16:55:22.826Z,14.60
2019-03-19T16:57:51.896Z,14.50
2019-03-19T17:00:25.165Z,14.40
2019-03-19T17:02:53.838Z,14.30
2019-03-19T17:05:23.076Z,14.30
2019-03-19T17:07:51.765Z,14.10
2019-03-19T17:10:29.036Z,14.10
2019-03-19T17:13:04.958Z,14.00
2019-03-19T17:15:34.691Z,13.90
2019-03-19T17:18:05.757Z,13.70
2019-03-19T17:20:34.611Z,13.70
2019-03-19T17:23:06.586Z,13.60
2019-03-19T17:25:36.243Z,13.50
2019-03-19T17:28:05.194Z,13.40
2019-03-19T17:30:37.377Z,13.30
2019-03-19T17:33:06.282Z,13.30
2019-03-19T17:35:35.178Z,13.20
2019-03-19T17:38:09.139Z,13.20
2019-03-19T17:40:42.715Z,13.10
2019-03-19T17:43:18.676Z,13.10
2019-03-19T17:45:47.915Z,13.00
2019-03-19T17:48:17.057Z,13.00
2019-03-19T17:50:51.148Z,12.90
2019-03-19T17:53:19.747Z,12.90
2019-03-19T17:55:48.662Z,12.90
2019-03-19T17:58:17.321Z,12.80
2019-03-19T18:00:47.691Z,12.80
2019-03-19T18:03:16.359Z,12.70
2019-03-19T18:05:45.071Z,12.70
2019-03-19T18:08:13.616Z,12.70
2019-03-19T18:10:42.582Z,12.70
2019-03-19T18:13:11.441Z,12.60
2019-03-19T18:15:39.946Z,12.60
2019-03-19T18:18:08.981Z,12.60
2019-03-19T18:20:37.535Z,12.60
2019-03-19T18:23:06.231Z,12.50
2019-03-19T18:25:34.765Z,12.50
2019-03-19T18:28:03.307Z,12.50
2019-03-19T18:30:31.861Z,12.50
2019-03-19T18:33:00.614Z,12.50
2019-03-19T18:35:29.166Z,12.50
2019-03-19T18:37:57.991Z,12.50
2019-03-19T18:40:26.593Z,12.50
2019-03-19T18:42:55.133Z,12.50
2019-03-19T18:45:24.111Z,12.60
2019-03-19T18:47:52.660Z,12.60
2019-03-19T18:50:23.049Z,12.60
2019-03-19T18:52:51.667Z,12.60
2019-03-19T18:55:20.462Z,12.50
2019-03-19T18:57:49.265Z,12.60
2019-03-19T19:00:18.916Z,12.50
2019-03-19T19:02:50.107Z,12.60
2019-03-19T19:05:20.067Z,12.50
2019-03-19T19:07:48.770Z,12.50
2019-03-19T19:10:20.916Z,12.50
2019-03-19T19:12:48.879Z,12.50
2019-03-19T19:15:24.165Z,12.50
2019-03-19T19:17:52.812Z,12.50
2019-03-19T19:20:21.691Z,12.50
2019-03-19T19:22:50.218Z,12.50
2019-03-19T19:25:27.091Z,12.50
2019-03-19T19:27:55.806Z,12.50
2019-03-19T19:30:29.366Z,12.50
2019-03-19T19:33:02.053Z,12.50
2019-03-19T19:35:28.075Z,12.50
2019-03-19T19:37:56.597Z,12.50
2019-03-19T19:40:25.158Z,12.40
2019-03-19T19:42:54.040Z,12.40
2019-03-19T19:45:22.651Z,12.40
2019-03-19T19:47:57.381Z,12.40
2019-03-19T19:50:25.940Z,12.40
2019-03-19T19:52:54.653Z,12.30
2019-03-19T19:55:23.447Z,12.30
2019-03-19T19:57:56.207Z,12.20
2019-03-19T20:00:24.989Z,12.20
2019-03-19T20:02:53.542Z,12.10
2019-03-19T20:05:22.011Z,12.10
2019-03-19T20:07:50.653Z,12.10
2019-03-19T20:10:27.579Z,12.00
2019-03-19T20:12:56.228Z,11.90
2019-03-19T20:15:24.711Z,11.80
2019-03-19T20:17:53.311Z,11.80
2019-03-19T20:20:23.447Z,11.70
2019-03-19T20:22:52.080Z,11.70
2019-03-19T20:25:20.951Z,11.70
2019-03-19T20:27:49.651Z,11.60
2019-03-19T20:30:20.920Z,11.70
2019-03-19T20:32:49.859Z,11.60
2019-03-19T20:35:18.719Z,11.70
2019-03-19T20:37:47.436Z,11.70
2019-03-19T20:40:16.726Z,11.70
2019-03-19T20:42:45.441Z,11.70
2019-03-19T20:45:16.584Z,11.70
2019-03-19T20:47:45.604Z,11.70
2019-03-19T20:50:26.116Z,11.70
2019-03-19T20:52:54.647Z,11.70
2019-03-19T20:55:23.574Z,11.70
2019-03-19T20:57:52.115Z,11.70
2019-03-19T21:00:20.907Z,11.70
2019-03-19T21:02:51.070Z,11.70
2019-03-19T21:05:20.002Z,11.60
2019-03-19T21:07:49.149Z,11.60
2019-03-19T21:10:24.668Z,11.60
2019-03-19T21:12:53.751Z,11.60
2019-03-19T21:15:24.957Z,11.60
2019-03-19T21:17:53.640Z,11.50
2019-03-19T21:20:22.700Z,11.50
2019-03-19T21:22:51.780Z,11.50
2019-03-19T21:25:20.801Z,11.50
2019-03-19T21:27:51.774Z,11.50
2019-03-19T21:30:22.641Z,11.50
2019-03-19T21:32:51.462Z,11.60
2019-03-19T21:35:21.132Z,11.50
2019-03-19T21:37:50.703Z,11.50
2019-03-19T21:40:19.633Z,11.50
2019-03-19T21:42:48.416Z,11.50
2019-03-19T21:45:18.804Z,11.50
2019-03-19T21:47:47.663Z,11.50
2019-03-19T21:50:20.777Z,11.50
2019-03-19T21:52:49.805Z,11.50
2019-03-19T21:55:20.454Z,11.40
2019-03-19T21:57:49.191Z,11.40
2019-03-19T22:00:19.983Z,11.30
2019-03-19T22:02:48.645Z,11.30
2019-03-19T22:05:17.425Z,11.20
2019-03-19T22:07:46.806Z,11.10
2019-03-19T22:10:19.687Z,11.10
2019-03-19T22:12:49.559Z,11.00
2019-03-19T22:15:19.861Z,10.90
2019-03-19T22:17:48.552Z,10.90
2019-03-19T22:20:17.796Z,10.80
2019-03-19T22:22:46.332Z,10.80
2019-03-19T22:25:15.645Z,10.80
2019-03-19T22:27:44.241Z,10.70
2019-03-19T22:30:20.610Z,10.70
2019-03-19T22:32:49.599Z,10.60
2019-03-19T22:35:18.579Z,10.60
2019-03-19T22:37:47.859Z,10.50
2019-03-19T22:40:17.300Z,10.50
2019-03-19T22:42:46.349Z,10.50
2019-03-19T22:45:16.568Z,10.40
2019-03-19T22:47:45.521Z,10.40
2019-03-19T22:50:16.578Z,10.30
2019-03-19T22:52:45.533Z,10.40
2019-03-19T22:55:14.935Z,10.30
2019-03-19T22:57:43.710Z,10.30
2019-03-19T23:00:38.857Z,10.30
2019-03-19T23:03:08.223Z,10.30
2019-03-19T23:05:37.542Z,10.20
2019-03-19T23:08:06.349Z,10.20
2019-03-19T23:10:35.517Z,10.10
2019-03-19T23:13:04.836Z,10.10
2019-03-19T23:15:33.639Z,10.10
2019-03-19T23:18:02.210Z,10.00
2019-03-19T23:20:31.092Z,10.00
2019-03-19T23:22:59.563Z,9.90
2019-03-19T23:25:28.136Z,9.90
2019-03-19T23:27:56.743Z,9.80
2019-03-19T23:30:25.810Z,9.80
2019-03-19T23:32:54.414Z,9.70
2019-03-19T23:35:22.872Z,9.60
2019-03-19T23:37:51.525Z,9.50
2019-03-19T23:40:21.318Z,9.50
2019-03-19T23:42:49.925Z,9.40
2019-03-19T23:45:18.592Z,9.40
2019-03-19T23:47:47.304Z,9.30
2019-03-19T23:50:17.164Z,9.20
2019-03-19T23:52:45.741Z,9.20
2019-03-19T23:55:14.847Z,9.10
2019-03-19T23:57:43.535Z,9.10
